Terminal Aerodrome Forecast
Issued by NWS

Home | Current Version | Previous Version | Text Only | Print | Product List | Glossary On
Versions: 1 2 3 4 5 6 7 8 9 10 11 12 13 14 15
906
FTUS46 KHNX 061723
TAFMER
TAF
KMER 061723Z 0618/0718 34006KT 3SM BR BKN030 BKN250
      TEMPO 0618/0619 4SM BR SCT030
     FM061900 34009KT 4SM HZ BKN250
     FM070400 34005KT 2SM BR OVC250
     FM070900 VRB03KT 1SM BR SCT002 OVC250
      TEMPO 0712/0716 1/2SM FG BKN002=

USA.gov is the U.S. government's official web portal to all federal, state and local government web resources and services.